Time;durP1;ratioP1;P1;durP2;ratioP2;P2;SDS_P1;SDS_P2;PMS_P1;PMS_P2;Temp;Humidity;BMP_temperature;BMP_pressure;BME280_temperature;BME280_humidity;BME280_pressure;Samples;Min_cycle;Max_cycle;Signal;HPM_P1;HPM_P2
2023/02/02 00:02:04;;;;;;;5.15;2.35;;;;;;;;;;10207414;29;20475;-83
2023/02/02 00:07:08;;;;;;;11.10;2.50;;;;;;;;;;10210340;29;20092;-83
2023/02/02 00:12:13;;;;;;;7.53;2.33;;;;;;;;;;10209506;28;20107;-84
2023/02/02 00:17:16;;;;;;;3.60;1.67;;;;;;;;;;10210261;28;20058;-85
2023/02/02 00:22:20;;;;;;;8.13;2.90;;;;;;;;;;10217130;28;20139;-83
2023/02/02 00:27:25;;;;;;;8.38;1.95;;;;;;;;;;10201649;29;20062;-82
2023/02/02 00:32:28;;;;;;;8.82;2.42;;;;;;;;;;10220961;28;20051;-83
2023/02/02 00:37:31;;;;;;;6.65;2.00;;;;;;;;;;10204143;28;20052;-81
2023/02/02 00:42:37;;;;;;;5.72;2.30;;;;;;;;;;10212438;28;20577;-82
2023/02/02 00:47:40;;;;;;;7.82;2.50;;;;;;;;;;10212240;28;20119;-85
2023/02/02 00:52:44;;;;;;;5.20;1.73;;;;;;;;;;10219887;29;20050;-82
2023/02/02 00:57:48;;;;;;;5.07;1.90;;;;;;;;;;10204369;28;20032;-84
2023/02/02 01:02:53;;;;;;;3.97;1.85;;;;;;;;;;10203899;29;20158;-83
2023/02/02 01:07:57;;;;;;;6.15;2.00;;;;;;;;;;10210543;28;20039;-84
2023/02/02 01:13:02;;;;;;;3.53;1.98;;;;;;;;;;10200384;29;20052;-84
2023/02/02 01:18:07;;;;;;;4.70;1.70;;;;;;;;;;10205322;28;20046;-84
2023/02/02 01:23:10;;;;;;;3.20;1.50;;;;;;;;;;10207537;28;20047;-85
2023/02/02 01:28:15;;;;;;;5.57;2.28;;;;;;;;;;10222166;28;20047;-84
2023/02/02 01:33:19;;;;;;;6.50;2.08;;;;;;;;;;10198190;28;20056;-84
2023/02/02 01:38:23;;;;;;;7.80;2.45;;;;;;;;;;10207885;28;20139;-84
2023/02/02 01:43:30;;;;;;;6.38;2.60;;;;;;;;;;10213282;28;20524;-84
2023/02/02 01:48:35;;;;;;;10.77;2.50;;;;;;;;;;10208190;28;20131;-82
2023/02/02 01:53:39;;;;;;;3.95;1.52;;;;;;;;;;10206586;28;20478;-85
2023/02/02 01:58:45;;;;;;;3.88;1.77;;;;;;;;;;10187716;28;20052;-82
2023/02/02 02:03:49;;;;;;;7.15;2.47;;;;;;;;;;10194451;28;20099;-82
2023/02/02 02:08:56;;;;;;;8.40;2.42;;;;;;;;;;10204842;28;20051;-82
2023/02/02 02:31:25;;;;;;;6.55;2.30;;;;;;;;;;10210872;29;20509;-81
2023/02/02 02:36:36;;;;;;;5.90;1.65;;;;;;;;;;10203707;29;20413;-82
2023/02/02 02:41:44;;;;;;;7.22;2.15;;;;;;;;;;10196067;29;20044;-82
2023/02/02 02:46:49;;;;;;;4.80;1.88;;;;;;;;;;10201956;29;20132;-81
2023/02/02 02:51:55;;;;;;;5.55;1.67;;;;;;;;;;10194912;29;20758;-82
2023/02/02 02:57:34;;;;;;;10.52;3.13;;;;;;;;;;10188042;29;20378;-81
2023/02/02 03:02:45;;;;;;;6.95;2.25;;;;;;;;;;10176148;29;20138;-82
2023/02/02 03:07:53;;;;;;;4.70;2.25;;;;;;;;;;10197838;28;20528;-81
2023/02/02 03:12:57;;;;;;;3.58;1.63;;;;;;;;;;10188765;29;20043;-82
2023/02/02 03:18:00;;;;;;;6.30;2.10;;;;;;;;;;10175147;29;20139;-82
2023/02/02 03:23:05;;;;;;;8.23;2.60;;;;;;;;;;10181372;28;20654;-82
2023/02/02 03:28:09;;;;;;;7.20;2.40;;;;;;;;;;10186750;28;20032;-85
2023/02/02 03:33:14;;;;;;;5.05;2.05;;;;;;;;;;10204729;28;20048;-86
2023/02/02 03:38:19;;;;;;;7.82;2.42;;;;;;;;;;10182008;28;20658;-85
2023/02/02 03:43:23;;;;;;;9.27;2.40;;;;;;;;;;10189333;28;20048;-85
2023/02/02 03:48:27;;;;;;;4.88;1.80;;;;;;;;;;10198418;29;20099;-83
2023/02/02 03:53:32;;;;;;;6.45;2.30;;;;;;;;;;10206425;28;20582;-81
2023/02/02 03:58:35;;;;;;;4.55;1.80;;;;;;;;;;10216068;28;20055;-83
2023/02/02 04:03:39;;;;;;;6.85;2.03;;;;;;;;;;10205723;28;20136;-82
2023/02/02 04:08:44;;;;;;;3.50;1.60;;;;;;;;;;10213646;28;20135;-83
2023/02/02 04:13:47;;;;;;;2.85;1.38;;;;;;;;;;10206557;28;20044;-82
2023/02/02 04:18:51;;;;;;;5.05;1.63;;;;;;;;;;10180992;28;20142;-83
2023/02/02 04:23:56;;;;;;;3.38;1.33;;;;;;;;;;10188082;28;20401;-82
2023/02/02 04:29:00;;;;;;;2.50;1.20;;;;;;;;;;10194096;28;20067;-84
2023/02/02 04:34:03;;;;;;;3.13;1.17;;;;;;;;;;10215893;28;20062;-83
2023/02/02 04:39:11;;;;;;;4.93;2.03;;;;;;;;;;10193814;28;20067;-83
2023/02/02 04:44:15;;;;;;;6.40;1.63;;;;;;;;;;10215799;28;20134;-82
2023/02/02 04:49:19;;;;;;;6.05;2.03;;;;;;;;;;10193875;28;20531;-82
2023/02/02 04:54:23;;;;;;;2.30;1.02;;;;;;;;;;10197603;28;20048;-82
2023/02/02 04:59:29;;;;;;;3.42;1.85;;;;;;;;;;10190214;28;20062;-83
2023/02/02 05:04:32;;;;;;;6.22;2.40;;;;;;;;;;10180054;28;20060;-82
2023/02/02 05:09:37;;;;;;;4.05;1.63;;;;;;;;;;10172267;29;20744;-84
2023/02/02 05:14:41;;;;;;;5.20;1.70;;;;;;;;;;10182511;28;20140;-85
2023/02/02 05:19:44;;;;;;;5.50;2.13;;;;;;;;;;10182896;29;20482;-82
2023/02/02 05:24:49;;;;;;;6.35;2.03;;;;;;;;;;10197928;28;20043;-83
2023/02/02 05:29:53;;;;;;;3.60;1.80;;;;;;;;;;10175173;28;20533;-83
2023/02/02 05:34:56;;;;;;;7.78;2.65;;;;;;;;;;10193909;28;20130;-82
2023/02/02 05:40:01;;;;;;;7.22;2.35;;;;;;;;;;10171357;29;20139;-82
2023/02/02 05:45:05;;;;;;;8.32;2.22;;;;;;;;;;10197136;28;20078;-83
2023/02/02 05:50:09;;;;;;;4.50;1.77;;;;;;;;;;10186536;28;20050;-82
2023/02/02 05:55:14;;;;;;;4.95;1.60;;;;;;;;;;10185204;28;20414;-82
2023/02/02 06:00:19;;;;;;;7.22;2.08;;;;;;;;;;10187499;28;20142;-84
2023/02/02 06:05:23;;;;;;;7.50;2.63;;;;;;;;;;10199210;28;20055;-83
2023/02/02 06:10:30;;;;;;;3.63;1.73;;;;;;;;;;10196570;28;20047;-83
2023/02/02 06:15:33;;;;;;;8.00;2.33;;;;;;;;;;10199566;29;20413;-83
2023/02/02 06:20:37;;;;;;;5.78;2.20;;;;;;;;;;10197850;28;20134;-83
2023/02/02 06:25:42;;;;;;;8.48;2.70;;;;;;;;;;10191459;29;20039;-83
2023/02/02 06:30:46;;;;;;;9.88;2.97;;;;;;;;;;10191533;29;20075;-83
2023/02/02 06:35:50;;;;;;;7.18;3.00;;;;;;;;;;10197464;28;20063;-83
2023/02/02 06:40:55;;;;;;;11.90;2.63;;;;;;;;;;10191443;29;20040;-83
2023/02/02 06:46:00;;;;;;;8.30;2.95;;;;;;;;;;10192979;29;20058;-84
2023/02/02 06:51:04;;;;;;;8.13;3.10;;;;;;;;;;10193883;29;20373;-83
2023/02/02 06:56:13;;;;;;;7.45;2.67;;;;;;;;;;10194371;28;20058;-83
2023/02/02 07:01:17;;;;;;;9.48;3.22;;;;;;;;;;10184900;29;20517;-82
2023/02/02 07:06:23;;;;;;;7.88;2.63;;;;;;;;;;10186730;29;20445;-83
2023/02/02 07:11:27;;;;;;;9.75;2.72;;;;;;;;;;10187971;29;20075;-84
2023/02/02 07:16:31;;;;;;;7.55;2.60;;;;;;;;;;10193478;29;20118;-83
2023/02/02 07:21:35;;;;;;;8.82;2.85;;;;;;;;;;10184579;29;20062;-84
2023/02/02 07:26:40;;;;;;;7.75;2.50;;;;;;;;;;10195965;28;20054;-83
2023/02/02 07:31:43;;;;;;;10.52;3.03;;;;;;;;;;10193039;29;20079;-83
2023/02/02 07:36:47;;;;;;;6.63;2.50;;;;;;;;;;10203152;28;20316;-81
2023/02/02 07:41:52;;;;;;;7.35;2.33;;;;;;;;;;10202504;29;20165;-83
2023/02/02 07:47:06;;;;;;;5.97;2.42;;;;;;;;;;10200554;29;20528;-83
2023/02/02 07:52:10;;;;;;;7.65;2.28;;;;;;;;;;10201353;29;20457;-83
2023/02/02 07:57:17;;;;;;;9.60;2.50;;;;;;;;;;10202521;28;20052;-82
2023/02/02 08:02:20;;;;;;;7.20;2.92;;;;;;;;;;10196677;29;20114;-83
2023/02/02 08:07:24;;;;;;;7.18;2.63;;;;;;;;;;10201421;29;20047;-82
2023/02/02 08:12:29;;;;;;;6.60;2.30;;;;;;;;;;10198373;29;20119;-82
2023/02/02 08:17:32;;;;;;;8.13;2.88;;;;;;;;;;10193221;29;20055;-83
2023/02/02 08:22:36;;;;;;;9.20;3.13;;;;;;;;;;10194025;29;20070;-82
2023/02/02 08:27:41;;;;;;;8.95;3.63;;;;;;;;;;10199553;29;20048;-83
2023/02/02 08:32:44;;;;;;;8.65;3.05;;;;;;;;;;10198120;29;20122;-83
2023/02/02 08:37:48;;;;;;;7.90;2.65;;;;;;;;;;10199721;28;20517;-82
2023/02/02 08:42:55;;;;;;;7.80;2.10;;;;;;;;;;10196720;29;20059;-83
2023/02/02 08:47:59;;;;;;;8.63;2.28;;;;;;;;;;10196612;29;20416;-83
2023/02/02 08:53:13;;;;;;;7.05;2.03;;;;;;;;;;10197911;28;20055;-83
2023/02/02 08:58:18;;;;;;;6.75;2.83;;;;;;;;;;10189627;28;20051;-82
2023/02/02 09:03:22;;;;;;;7.68;2.72;;;;;;;;;;10197350;28;20521;-82
2023/02/02 09:08:25;;;;;;;7.28;2.17;;;;;;;;;;10172292;29;20095;-83
2023/02/02 09:13:30;;;;;;;8.02;2.38;;;;;;;;;;10174447;29;20048;-83
2023/02/02 09:18:33;;;;;;;5.75;2.17;;;;;;;;;;10167476;29;20123;-82
2023/02/02 09:23:39;;;;;;;7.35;2.28;;;;;;;;;;10174851;28;20128;-84
2023/02/02 09:28:45;;;;;;;6.57;2.28;;;;;;;;;;10184972;28;20139;-83
2023/02/02 09:33:49;;;;;;;7.93;2.33;;;;;;;;;;10173084;28;20083;-84
2023/02/02 09:38:53;;;;;;;6.75;1.90;;;;;;;;;;10180086;29;20043;-82
2023/02/02 09:44:08;;;;;;;5.22;1.92;;;;;;;;;;10189870;28;20047;-83
2023/02/02 09:49:14;;;;;;;6.13;1.63;;;;;;;;;;10166307;29;20118;-83
2023/02/02 09:54:21;;;;;;;6.93;2.03;;;;;;;;;;10180396;28;20056;-84
2023/02/02 09:59:30;;;;;;;4.85;1.80;;;;;;;;;;10159639;29;20059;-82
2023/02/02 10:04:36;;;;;;;5.28;1.80;;;;;;;;;;10173345;29;20073;-82
2023/02/02 10:09:46;;;;;;;6.32;2.08;;;;;;;;;;10179097;29;20081;-82
2023/02/02 10:14:56;;;;;;;4.55;1.52;;;;;;;;;;10170154;29;20077;-84
2023/02/02 10:20:05;;;;;;;3.22;1.45;;;;;;;;;;10182961;28;20059;-83
2023/02/02 10:25:12;;;;;;;4.30;1.70;;;;;;;;;;10164382;29;20040;-82
2023/02/02 10:30:20;;;;;;;6.20;2.50;;;;;;;;;;10187365;29;20580;-83
2023/02/02 10:35:36;;;;;;;4.82;1.65;;;;;;;;;;10180017;28;20048;-84
2023/02/02 10:40:48;;;;;;;3.13;1.83;;;;;;;;;;10170706;29;20048;-83
2023/02/02 10:45:54;;;;;;;5.05;1.95;;;;;;;;;;10178424;29;20044;-83
2023/02/02 10:51:02;;;;;;;4.60;1.47;;;;;;;;;;10175337;28;20079;-83
2023/02/02 10:56:10;;;;;;;3.83;1.30;;;;;;;;;;10179167;29;20040;-83
2023/02/02 11:01:16;;;;;;;3.40;1.63;;;;;;;;;;10179854;29;20410;-82
2023/02/02 11:11:44;;;;;;;4.68;1.30;;;;;;;;;;10195781;29;19930;-83
2023/02/02 11:16:59;;;;;;;;;;;;;;;;;;10177786;29;20521;-84
2023/02/02 11:22:04;;;;;;;3.03;1.60;;;;;;;;;;10186347;28;19961;-83
2023/02/02 11:27:14;;;;;;;1.63;1.00;;;;;;;;;;10187762;29;20044;-82
2023/02/02 11:32:27;;;;;;;3.08;1.40;;;;;;;;;;10191533;28;20442;-83
2023/02/02 11:37:31;;;;;;;3.00;1.27;;;;;;;;;;10177543;29;20096;-82
2023/02/02 11:42:35;;;;;;;2.90;1.70;;;;;;;;;;10183494;29;20155;-83
2023/02/02 11:47:40;;;;;;;2.05;0.90;;;;;;;;;;10186079;29;20076;-84
2023/02/02 11:52:46;;;;;;;1.52;0.93;;;;;;;;;;10170040;29;20040;-82
2023/02/02 11:58:18;;;;;;;5.32;1.75;;;;;;;;;;10180421;29;20520;-82
2023/02/02 12:03:30;;;;;;;3.42;1.17;;;;;;;;;;10179085;29;20059;-83
2023/02/02 12:08:34;;;;;;;1.95;1.00;;;;;;;;;;10179423;29;20143;-83
2023/02/02 12:13:58;;;;;;;2.05;0.80;;;;;;;;;;10176544;29;20059;-83
2023/02/02 12:19:28;;;;;;;0.80;0.80;;;;;;;;;;10178457;28;20134;-83
2023/02/02 12:24:35;;;;;;;1.17;0.63;;;;;;;;;;10168141;28;20143;-84
2023/02/02 12:30:00;;;;;;;1.63;0.60;;;;;;;;;;10178641;29;20075;-83
2023/02/02 12:35:45;;;;;;;0.88;0.60;;;;;;;;;;10177636;29;20075;-83
2023/02/02 12:41:09;;;;;;;1.77;0.65;;;;;;;;;;10181244;28;20040;-83
2023/02/02 12:46:37;;;;;;;1.17;0.50;;;;;;;;;;10184078;29;20044;-84
2023/02/02 12:52:04;;;;;;;0.70;0.40;;;;;;;;;;10199393;29;20047;-83
2023/02/02 12:57:16;;;;;;;3.25;0.68;;;;;;;;;;10184103;29;20059;-84
2023/02/02 13:02:28;;;;;;;1.67;0.73;;;;;;;;;;10170161;29;20050;-84
2023/02/02 13:07:39;;;;;;;1.27;0.70;;;;;;;;;;10188996;29;20155;-81
2023/02/02 13:12:46;;;;;;;1.20;0.50;;;;;;;;;;10174461;29;20417;-84
2023/02/02 13:17:53;;;;;;;0.55;0.45;;;;;;;;;;10181356;29;20055;-83
2023/02/02 13:23:04;;;;;;;0.70;0.60;;;;;;;;;;10174995;29;20108;-84
2023/02/02 13:28:15;;;;;;;0.55;0.40;;;;;;;;;;10159013;29;20100;-85
2023/02/02 13:33:23;;;;;;;0.52;0.52;;;;;;;;;;10183621;28;20051;-84
2023/02/02 13:38:30;;;;;;;1.10;0.55;;;;;;;;;;10188849;28;20054;-84
2023/02/02 13:43:38;;;;;;;;;;;;;;;;;;10176347;29;20040;-84
2023/02/02 13:48:52;;;;;;;1.42;0.60;;;;;;;;;;10174659;29;20603;-85
2023/02/02 13:54:32;;;;;;;1.17;0.70;;;;;;;;;;10178706;29;20051;-88
2023/02/02 13:59:52;;;;;;;1.48;0.90;;;;;;;;;;10184557;23;20048;-80
2023/02/02 14:04:58;;;;;;;1.98;0.82;;;;;;;;;;10188696;28;20045;-80
2023/02/02 14:10:04;;;;;;;1.10;0.68;;;;;;;;;;10141686;29;20040;-79
2023/02/02 14:15:12;;;;;;;0.50;0.50;;;;;;;;;;10158998;28;20058;-85
2023/02/02 14:20:41;;;;;;;2.70;0.82;;;;;;;;;;10140072;29;20048;-80
2023/02/02 14:25:54;;;;;;;0.70;0.65;;;;;;;;;;10139418;29;20059;-80
2023/02/02 14:31:32;;;;;;;2.55;0.70;;;;;;;;;;10149268;29;20067;-80
2023/02/02 14:36:38;;;;;;;2.50;1.30;;;;;;;;;;10141277;29;20052;-80
2023/02/02 14:47:48;;;;;;;1.58;0.80;;;;;;;;;;10137137;29;20087;-80
2023/02/02 14:53:04;;;;;;;1.52;0.90;;;;;;;;;;10137850;29;20040;-81
2023/02/02 14:58:10;;;;;;;1.83;1.25;;;;;;;;;;10137409;29;20052;-81
2023/02/02 15:03:35;;;;;;;1.42;0.90;;;;;;;;;;10150708;28;20051;-81
2023/02/02 15:08:38;;;;;;;2.63;0.70;;;;;;;;;;10138335;29;20395;-81
2023/02/02 15:13:49;;;;;;;3.33;0.90;;;;;;;;;;10153250;28;20100;-81
2023/02/02 15:19:03;;;;;;;2.10;1.00;;;;;;;;;;10145984;28;20048;-80
2023/02/02 15:24:19;;;;;;;3.65;1.00;;;;;;;;;;10146123;28;20040;-81
2023/02/02 15:29:33;;;;;;;1.70;0.95;;;;;;;;;;10152914;28;20049;-81
2023/02/02 15:34:41;;;;;;;1.63;1.00;;;;;;;;;;10146762;29;20063;-80
2023/02/02 15:39:48;;;;;;;3.38;0.95;;;;;;;;;;10147213;29;20139;-80
2023/02/02 15:44:55;;;;;;;2.22;0.90;;;;;;;;;;10160543;29;20044;-82
2023/02/02 15:49:59;;;;;;;2.08;1.00;;;;;;;;;;10152585;28;20045;-83
2023/02/02 15:55:02;;;;;;;1.17;0.70;;;;;;;;;;10168764;28;20047;-82
2023/02/02 16:00:24;;;;;;;2.72;1.35;;;;;;;;;;10156411;29;20043;-83
2023/02/02 16:05:43;;;;;;;4.32;1.48;;;;;;;;;;10143492;29;20058;-84
2023/02/02 16:10:48;;;;;;;1.85;1.08;;;;;;;;;;10170905;29;20043;-83
2023/02/02 16:16:00;;;;;;;3.42;1.23;;;;;;;;;;10175451;28;20135;-83
2023/02/02 16:21:11;;;;;;;2.80;1.20;;;;;;;;;;10167448;29;20166;-81
2023/02/02 16:26:17;;;;;;;5.22;1.75;;;;;;;;;;10177791;28;20074;-82
2023/02/02 16:31:22;;;;;;;5.43;1.40;;;;;;;;;;10153164;29;20090;-80
2023/02/02 16:36:28;;;;;;;2.95;1.38;;;;;;;;;;10141218;29;20052;-80
2023/02/02 16:41:33;;;;;;;;;;;;;;;;;;10156353;29;20036;-79
2023/02/02 16:46:44;;;;;;;4.45;1.45;;;;;;;;;;10146950;29;19927;-79
2023/02/02 16:51:49;;;;;;;4.65;1.80;;;;;;;;;;10145553;29;20557;-80
2023/02/02 16:57:00;;;;;;;5.28;1.52;;;;;;;;;;10148367;29;20103;-80
2023/02/02 17:02:20;;;;;;;6.47;1.70;;;;;;;;;;10143689;29;20048;-79
2023/02/02 17:07:24;;;;;;;2.90;1.00;;;;;;;;;;10139109;29;20048;-79
2023/02/02 17:12:31;;;;;;;4.50;1.58;;;;;;;;;;10138846;29;20048;-80
2023/02/02 17:17:38;;;;;;;4.45;1.52;;;;;;;;;;10143853;29;20076;-80
2023/02/02 17:22:44;;;;;;;4.30;1.20;;;;;;;;;;10152642;29;20404;-80
2023/02/02 17:27:48;;;;;;;8.07;2.25;;;;;;;;;;10150277;29;20261;-80
2023/02/02 17:32:53;;;;;;;3.75;1.27;;;;;;;;;;10152211;29;20052;-79
2023/02/02 17:37:57;;;;;;;6.05;1.70;;;;;;;;;;10149799;29;20417;-81
2023/02/02 17:43:01;;;;;;;3.63;1.67;;;;;;;;;;10145028;29;20048;-80
2023/02/02 17:48:06;;;;;;;4.70;1.67;;;;;;;;;;10106687;29;20394;-81
2023/02/02 17:53:11;;;;;;;7.43;4.17;;;;;;;;;;10106304;29;20041;-79
2023/02/02 17:58:16;;;;;;;5.88;2.05;;;;;;;;;;10109892;29;20550;-81
2023/02/02 18:03:23;;;;;;;5.70;1.38;;;;;;;;;;10114469;29;20079;-81
2023/02/02 18:08:27;;;;;;;7.40;1.33;;;;;;;;;;10127962;29;20065;-82
2023/02/02 18:13:30;;;;;;;4.38;1.45;;;;;;;;;;10125220;29;20052;-82
2023/02/02 18:18:35;;;;;;;2.97;1.40;;;;;;;;;;10122612;29;20057;-80
2023/02/02 18:23:38;;;;;;;4.95;1.60;;;;;;;;;;10130810;29;20443;-82
2023/02/02 18:28:42;;;;;;;3.67;1.35;;;;;;;;;;10127927;29;20096;-81
2023/02/02 18:33:47;;;;;;;7.32;2.05;;;;;;;;;;10132053;29;20050;-81
2023/02/02 18:38:52;;;;;;;4.88;1.55;;;;;;;;;;10133645;29;20045;-82
2023/02/02 18:43:55;;;;;;;5.10;1.85;;;;;;;;;;10133685;29;20108;-81
2023/02/02 18:49:00;;;;;;;7.68;2.00;;;;;;;;;;10133102;29;20044;-80
2023/02/02 18:54:04;;;;;;;6.25;1.80;;;;;;;;;;10139126;29;20418;-81
2023/02/02 18:59:07;;;;;;;5.22;2.08;;;;;;;;;;10135410;29;20045;-81
2023/02/02 19:04:12;;;;;;;2.92;1.48;;;;;;;;;;10142839;29;20507;-81
2023/02/02 19:09:16;;;;;;;7.35;2.40;;;;;;;;;;10133443;29;20128;-81
2023/02/02 19:14:23;;;;;;;5.95;2.28;;;;;;;;;;10140514;29;20051;-82
2023/02/02 19:19:30;;;;;;;5.60;2.08;;;;;;;;;;10121259;29;20417;-82
2023/02/02 19:24:38;;;;;;;6.78;2.58;;;;;;;;;;10118920;29;20052;-82
2023/02/02 19:29:41;;;;;;;9.48;2.47;;;;;;;;;;10125487;29;20044;-81
2023/02/02 19:34:47;;;;;;;6.18;1.98;;;;;;;;;;10148721;29;20484;-82
2023/02/02 19:39:50;;;;;;;9.93;2.70;;;;;;;;;;10125505;29;20075;-81
2023/02/02 19:44:54;;;;;;;5.75;2.55;;;;;;;;;;10101555;29;20553;-82
2023/02/02 19:50:07;;;;;;;6.15;2.00;;;;;;;;;;10100508;29;20451;-82
2023/02/02 19:55:20;;;;;;;5.50;1.60;;;;;;;;;;10131544;29;20108;-82
2023/02/02 20:00:26;;;;;;;6.45;2.17;;;;;;;;;;10114378;29;20979;-81
2023/02/02 20:05:34;;;;;;;9.57;2.20;;;;;;;;;;10120110;29;20049;-80
2023/02/02 20:10:41;;;;;;;4.53;2.22;;;;;;;;;;10104631;29;20060;-81
2023/02/02 20:15:44;;;;;;;;;;;;;;;;;;10105638;29;20128;-81
2023/02/02 20:20:52;;;;;;;5.32;1.88;;;;;;;;;;10111147;29;19927;-80
2023/02/02 20:25:55;;;;;;;7.35;2.40;;;;;;;;;;10097930;29;20333;-81
2023/02/02 20:30:59;;;;;;;5.32;1.80;;;;;;;;;;10113527;29;20036;-80
2023/02/02 20:36:21;;;;;;;4.28;2.38;;;;;;;;;;10097530;29;20064;-79
2023/02/02 20:41:25;;;;;;;6.13;2.03;;;;;;;;;;10105418;29;20143;-80
2023/02/02 20:46:28;;;;;;;8.35;2.20;;;;;;;;;;10120336;29;20040;-80
2023/02/02 20:51:33;;;;;;;9.60;2.65;;;;;;;;;;10110633;29;20044;-81
2023/02/02 20:56:36;;;;;;;5.43;2.10;;;;;;;;;;10109479;29;20060;-82
2023/02/02 21:01:40;;;;;;;10.48;3.17;;;;;;;;;;10106444;29;20061;-83
2023/02/02 21:06:46;;;;;;;6.15;2.17;;;;;;;;;;10107888;29;20139;-82
2023/02/02 21:11:50;;;;;;;6.55;2.00;;;;;;;;;;10108967;29;20044;-82
2023/02/02 21:16:53;;;;;;;7.18;2.30;;;;;;;;;;10122396;29;20048;-82
2023/02/02 21:22:13;;;;;;;5.45;2.20;;;;;;;;;;10134207;29;20060;-82
2023/02/02 21:27:16;;;;;;;7.22;2.13;;;;;;;;;;10111678;29;20056;-82
2023/02/02 21:32:20;;;;;;;7.90;2.10;;;;;;;;;;10113828;29;20052;-83
2023/02/02 21:37:26;;;;;;;6.80;2.20;;;;;;;;;;10122873;29;20372;-83
2023/02/02 21:42:34;;;;;;;4.75;2.45;;;;;;;;;;10106741;29;20048;-83
2023/02/02 21:47:46;;;;;;;7.22;2.60;;;;;;;;;;10108108;29;20056;-83
2023/02/02 21:53:07;;;;;;;4.10;2.30;;;;;;;;;;10111517;29;20048;-83
2023/02/02 21:58:17;;;;;;;6.07;2.10;;;;;;;;;;10109676;29;20136;-81
2023/02/02 22:03:34;;;;;;;5.63;1.80;;;;;;;;;;10116253;29;20104;-82
2023/02/02 22:08:40;;;;;;;5.55;1.88;;;;;;;;;;10100609;29;20052;-82
2023/02/02 22:13:43;;;;;;;2.80;1.50;;;;;;;;;;10114653;29;20124;-81
2023/02/02 22:18:47;;;;;;;4.47;1.70;;;;;;;;;;10106236;29;20048;-82
2023/02/02 22:23:52;;;;;;;3.22;1.65;;;;;;;;;;10101049;29;20044;-82
2023/02/02 22:28:56;;;;;;;7.60;2.33;;;;;;;;;;10115557;29;20040;-82
2023/02/02 22:33:59;;;;;;;5.47;2.33;;;;;;;;;;10099257;29;20051;-82
2023/02/02 22:39:04;;;;;;;3.80;2.22;;;;;;;;;;10100854;29;20055;-83
2023/02/02 22:44:08;;;;;;;5.60;1.70;;;;;;;;;;10107464;29;20059;-82
2023/02/02 22:49:11;;;;;;;5.10;1.98;;;;;;;;;;10102221;29;20613;-82
2023/02/02 22:54:16;;;;;;;3.10;1.70;;;;;;;;;;10100410;29;20043;-82
2023/02/02 22:59:19;;;;;;;5.60;1.73;;;;;;;;;;10100732;29;20128;-82
2023/02/02 23:04:22;;;;;;;5.03;1.55;;;;;;;;;;10108937;29;20458;-81
2023/02/02 23:09:27;;;;;;;2.72;1.30;;;;;;;;;;10111547;29;20107;-82
2023/02/02 23:14:31;;;;;;;2.80;1.25;;;;;;;;;;10119076;29;20048;-81
2023/02/02 23:19:34;;;;;;;5.15;1.90;;;;;;;;;;10111766;29;20048;-82
2023/02/02 23:24:39;;;;;;;3.50;1.90;;;;;;;;;;10115018;29;20129;-83
2023/02/02 23:29:42;;;;;;;2.58;1.40;;;;;;;;;;10112647;29;20064;-83
2023/02/02 23:34:46;;;;;;;3.85;1.70;;;;;;;;;;10113205;29;20059;-83
2023/02/02 23:39:50;;;;;;;3.17;1.92;;;;;;;;;;10114603;29;20054;-83
2023/02/02 23:44:54;;;;;;;4.07;1.77;;;;;;;;;;10116485;29;20047;-82
2023/02/02 23:49:57;;;;;;;2.33;1.50;;;;;;;;;;10132404;29;20087;-82
2023/02/02 23:55:03;;;;;;;3.53;1.60;;;;;;;;;;10115255;29;20052;-83
